Time;durP1;ratioP1;P1;durP2;ratioP2;P2;SDS_P1;SDS_P2;PMS_P1;PMS_P2;Temp;Humidity;BMP_temperature;BMP_pressure;BME280_temperature;BME280_humidity;BME280_pressure;Samples;Min_cycle;Max_cycle;Signal;HPM_P1;HPM_P2
2022/04/06 00:01:45;;;;;;;;;60.00;49.25;13.20;44.60;;;;;;4955942;28;8793;-59
2022/04/06 00:04:11;;;;;;;;;63.25;52.25;13.00;44.80;;;;;;4956014;28;8785;-60
2022/04/06 00:06:37;;;;;;;;;67.00;54.00;12.70;45.60;;;;;;4955872;28;9134;-62
2022/04/06 00:09:03;;;;;;;;;67.25;55.75;12.80;45.80;;;;;;4955290;28;8780;-59
2022/04/06 00:11:30;;;;;;;;;68.00;54.50;12.80;45.30;;;;;;4946470;29;8814;-60
2022/04/06 00:13:57;;;;;;;;;70.25;55.25;12.90;45.20;;;;;;4940458;28;8788;-60
2022/04/06 00:16:23;;;;;;;;;78.00;63.75;12.90;45.50;;;;;;4955540;28;9460;-59
2022/04/06 00:18:49;;;;;;;;;69.75;56.50;12.20;47.30;;;;;;4955932;28;8844;-59
2022/04/06 00:21:15;;;;;;;;;62.00;51.00;11.70;48.50;;;;;;4956199;28;8880;-58
2022/04/06 00:23:41;;;;;;;;;65.75;51.50;11.70;48.50;;;;;;4955915;28;8795;-61
2022/04/06 00:26:08;;;;;;;;;67.00;54.00;12.00;47.60;;;;;;4955783;28;8814;-60
2022/04/06 00:28:34;;;;;;;;;75.00;61.00;12.10;47.50;;;;;;4955966;28;8802;-57
2022/04/06 00:31:00;;;;;;;;;75.25;60.25;12.20;47.00;;;;;;4955979;28;8796;-60
2022/04/06 00:33:25;;;;;;;;;72.75;56.50;12.40;46.60;;;;;;4955902;28;8883;-59
2022/04/06 00:35:51;;;;;;;;;81.00;67.75;12.60;46.30;;;;;;4955704;29;8784;-61
2022/04/06 00:38:17;;;;;;;;;77.75;60.00;12.70;45.80;;;;;;4955904;29;8808;-60
2022/04/06 00:40:44;;;;;;;;;75.25;58.00;12.60;46.20;;;;;;4955780;29;8811;-62
2022/04/06 00:43:13;;;;;;;;;82.25;68.75;12.40;47.10;;;;;;4953810;29;8777;-58
2022/04/06 00:45:40;;;;;;;;;84.25;68.00;12.00;48.10;;;;;;4947706;29;8811;-62
2022/04/06 00:48:07;;;;;;;;;79.50;67.00;11.80;48.70;;;;;;4940475;29;8791;-62
2022/04/06 00:50:34;;;;;;;;;86.25;73.00;12.00;48.00;;;;;;4936407;29;8819;-59
2022/04/06 00:53:00;;;;;;;;;82.75;70.75;11.90;48.60;;;;;;4936170;29;8803;-58
2022/04/06 00:55:34;;;;;;;;;85.25;69.25;11.90;48.80;;;;;;4936441;29;8783;-61
2022/04/06 00:58:00;;;;;;;;;76.00;61.00;11.90;48.50;;;;;;4936833;29;8882;-60
2022/04/06 01:00:26;;;;;;;;;77.50;60.25;12.10;47.80;;;;;;4936722;29;8893;-60
2022/04/06 01:02:53;;;;;;;;;72.00;58.75;12.50;47.20;;;;;;4936100;29;8949;-60
2022/04/06 01:05:19;;;;;;;;;71.50;57.50;12.40;47.20;;;;;;4936640;29;9485;-60
2022/04/06 01:07:50;;;;;;;;;72.50;58.00;12.20;47.70;;;;;;4936446;29;8810;-62
2022/04/06 01:10:16;;;;;;;;;64.75;53.50;12.20;47.80;;;;;;4936757;29;8775;-61
2022/04/06 01:12:46;;;;;;;;;61.25;50.25;12.10;47.70;;;;;;4936661;29;8806;-62
2022/04/06 01:15:12;;;;;;;;;58.00;48.00;12.00;48.10;;;;;;4936139;29;8803;-58
2022/04/06 01:17:38;;;;;;;;;56.00;45.50;11.10;51.00;;;;;;4936494;29;8834;-57
2022/04/06 01:20:08;;;;;;;;;52.75;43.25;10.80;52.30;;;;;;4938548;29;8867;-57
2022/04/06 01:22:34;;;;;;;;;56.00;47.50;10.80;52.20;;;;;;4940039;29;8866;-60
2022/04/06 01:25:02;;;;;;;;;60.25;50.25;10.20;54.40;;;;;;4939956;29;8917;-58
2022/04/06 01:27:28;;;;;;;;;57.75;47.25;10.30;54.50;;;;;;4940021;29;8857;-58
2022/04/06 01:29:54;;;;;;;;;65.00;52.25;10.40;54.20;;;;;;4941430;28;8911;-58
2022/04/06 01:32:35;;;;;;;;;65.75;52.25;10.30;54.10;;;;;;4954031;29;8822;-60
2022/04/06 01:35:01;;;;;;;;;64.75;52.75;10.20;55.10;;;;;;4939507;29;8822;-57
2022/04/06 01:37:28;;;;;;;;;64.75;52.50;10.30;54.60;;;;;;4939396;29;8897;-58
2022/04/06 01:39:54;;;;;;;;;58.25;48.50;10.80;52.70;;;;;;4939512;29;8806;-60
2022/04/06 01:42:21;;;;;;;;;54.00;46.00;11.30;51.10;;;;;;4939432;29;8802;-58
2022/04/06 01:44:48;;;;;;;;;67.25;54.00;11.40;50.30;;;;;;4939488;29;8898;-59
2022/04/06 01:47:16;;;;;;;;;59.75;50.25;10.90;51.60;;;;;;4939467;29;8803;-60
2022/04/06 01:52:28;;;;;;;;;62.50;51.25;10.80;51.90;;;;;;4939584;29;8878;-61
2022/04/06 01:55:00;;;;;;;;;62.00;51.75;11.30;50.50;;;;;;4939296;29;8775;-61
2022/04/06 01:57:27;;;;;;;;;67.00;55.25;11.40;50.40;;;;;;4939355;29;8870;-60
2022/04/06 01:59:53;;;;;;;;;66.00;53.75;11.40;50.10;;;;;;4939576;29;8793;-60
2022/04/06 02:02:22;;;;;;;;;64.25;53.50;11.50;49.70;;;;;;4938921;29;8783;-60
2022/04/06 02:04:48;;;;;;;;;64.75;53.75;11.60;49.30;;;;;;4938916;29;8782;-60
2022/04/06 02:07:14;;;;;;;;;70.75;56.00;11.70;50.20;;;;;;4939343;29;8799;-60
2022/04/06 02:09:41;;;;;;;;;66.25;53.75;11.70;49.10;;;;;;4939259;29;8981;-59
2022/04/06 02:12:09;;;;;;;;;67.00;54.00;11.30;49.90;;;;;;4939087;29;8775;-61
2022/04/06 02:14:35;;;;;;;;;64.00;52.25;11.50;49.50;;;;;;4938974;29;8775;-61
2022/04/06 02:17:03;;;;;;;;;58.50;48.00;11.50;49.30;;;;;;4939289;29;8865;-59
2022/04/06 02:19:30;;;;;;;;;55.50;47.00;11.50;49.30;;;;;;4938844;29;8807;-59
2022/04/06 02:21:55;;;;;;;;;59.75;49.75;11.20;49.70;;;;;;4938876;29;8806;-61
2022/04/06 02:24:21;;;;;;;;;58.25;47.00;11.10;50.40;;;;;;4938864;29;8779;-58
2022/04/06 02:26:47;;;;;;;;;58.00;46.50;11.10;50.70;;;;;;4938817;29;8822;-59
2022/04/06 02:29:13;;;;;;;;;58.50;48.75;10.80;51.70;;;;;;4938646;29;8779;-58
2022/04/06 02:31:39;;;;;;;;;59.50;50.00;10.00;54.80;;;;;;4938121;29;8787;-60
2022/04/06 02:34:05;;;;;;;;;61.50;50.00;9.80;55.50;;;;;;4938620;29;8865;-59
2022/04/06 02:36:31;;;;;;;;;57.00;48.75;9.80;56.00;;;;;;4938626;29;8770;-57
2022/04/06 02:38:57;;;;;;;;;64.00;52.00;10.50;53.70;;;;;;4938722;29;8827;-60
2022/04/06 02:41:23;;;;;;;;;61.00;49.75;10.90;52.00;;;;;;4938432;29;8815;-58
2022/04/06 02:43:48;;;;;;;;;56.50;47.75;11.10;51.00;;;;;;4938408;29;8909;-58
2022/04/06 02:46:14;;;;;;;;;56.00;47.50;10.70;52.20;;;;;;4937662;29;8810;-59
2022/04/06 02:48:40;;;;;;;;;57.00;47.00;10.70;52.30;;;;;;4937919;29;8791;-58
2022/04/06 02:51:06;;;;;;;;;59.00;49.25;10.70;52.00;;;;;;4938068;29;8811;-60
2022/04/06 02:53:32;;;;;;;;;61.50;49.50;10.80;52.20;;;;;;4938189;29;8787;-56
2022/04/06 02:55:58;;;;;;;;;61.00;48.50;10.80;52.30;;;;;;4938109;29;8794;-58
2022/04/06 02:58:23;;;;;;;;;56.00;46.75;11.00;51.30;;;;;;4938060;29;8811;-60
2022/04/06 03:00:49;;;;;;;;;54.25;46.00;10.70;51.70;;;;;;4938052;29;8821;-59
2022/04/06 03:03:15;;;;;;;;;60.75;46.25;10.70;51.90;;;;;;4938365;29;8790;-59
2022/04/06 03:05:41;;;;;;;;;54.50;46.00;11.00;51.80;;;;;;4938152;29;9421;-59
2022/04/06 03:08:07;;;;;;;;;58.00;48.25;11.00;51.30;;;;;;4938151;29;8783;-57
2022/04/06 03:10:33;;;;;;;;;62.00;52.00;11.20;50.60;;;;;;4937599;29;8771;-58
2022/04/06 03:12:59;;;;;;;;;64.75;52.25;10.80;51.80;;;;;;4937827;29;8782;-59
2022/04/06 03:15:25;;;;;;;;;69.50;56.50;10.40;53.30;;;;;;4938153;29;8779;-59
2022/04/06 03:17:51;;;;;;;;;74.75;58.25;10.00;55.00;;;;;;4937694;29;8823;-60
2022/04/06 03:20:17;;;;;;;;;71.00;56.25;9.90;55.30;;;;;;4938035;29;8885;-59
2022/04/06 03:22:43;;;;;;;;;76.50;60.00;10.20;53.90;;;;;;4937712;29;8786;-59
2022/04/06 03:25:09;;;;;;;;;75.75;58.25;10.40;52.90;;;;;;4937707;29;8795;-60
2022/04/06 03:27:36;;;;;;;;;72.75;58.00;10.40;53.20;;;;;;4938223;29;8823;-60
2022/04/06 03:30:04;;;;;;;;;72.75;59.50;10.50;52.60;;;;;;4937606;29;8787;-59
2022/04/06 03:32:30;;;;;;;;;67.50;54.75;10.90;51.40;;;;;;4937803;29;8819;-59
2022/04/06 03:34:56;;;;;;;;;81.00;63.50;10.90;51.60;;;;;;4937518;29;8779;-56
2022/04/06 03:37:22;;;;;;;;;78.25;61.00;10.80;51.60;;;;;;4937662;29;8815;-57
2022/04/06 03:39:47;;;;;;;;;83.75;68.00;10.80;51.70;;;;;;4949399;28;8875;-60
2022/04/06 03:42:13;;;;;;;;;91.00;80.25;10.90;51.70;;;;;;4942387;28;8796;-58
2022/04/06 03:44:39;;;;;;;;;86.25;75.75;10.90;51.70;;;;;;4956033;28;8800;-59
2022/04/06 03:47:05;;;;;;;;;81.75;65.00;11.00;51.50;;;;;;4945022;29;8901;-58
2022/04/06 03:49:31;;;;;;;;;82.50;68.00;10.80;52.00;;;;;;4937538;29;9813;-59
2022/04/06 03:51:57;;;;;;;;;80.50;65.25;10.70;52.30;;;;;;4937102;29;8842;-58
2022/04/06 03:54:23;;;;;;;;;80.00;65.25;10.90;52.10;;;;;;4937232;29;8809;-59
2022/04/06 03:56:49;;;;;;;;;80.25;64.25;10.70;52.80;;;;;;4937366;29;8910;-59
2022/04/06 03:59:15;;;;;;;;;75.75;60.25;10.50;53.40;;;;;;4945645;29;8798;-59
2022/04/06 04:01:41;;;;;;;;;81.25;64.25;10.80;52.70;;;;;;4949880;28;9435;-58
2022/04/06 04:04:07;;;;;;;;;74.50;59.00;10.60;52.90;;;;;;4940361;29;9544;-57
2022/04/06 04:06:33;;;;;;;;;66.75;53.00;10.90;51.80;;;;;;4936915;29;8809;-57
2022/04/06 04:08:59;;;;;;;;;68.25;56.00;10.90;51.70;;;;;;4936829;29;8775;-57
2022/04/06 04:11:25;;;;;;;;;75.75;60.25;10.60;52.10;;;;;;4936706;29;8846;-56
2022/04/06 04:13:51;;;;;;;;;73.50;58.00;10.40;52.70;;;;;;4936654;29;8780;-56
2022/04/06 04:16:16;;;;;;;;;75.25;60.50;9.70;54.80;;;;;;4936711;29;9031;-57
2022/04/06 04:18:42;;;;;;;;;70.75;58.25;9.70;54.90;;;;;;4936517;29;8806;-58
2022/04/06 04:23:52;;;;;;;;;69.00;54.75;10.40;53.20;;;;;;4936585;29;8767;-58
2022/04/06 04:26:18;;;;;;;;;74.00;59.00;10.60;52.20;;;;;;4936568;29;8849;-57
2022/04/06 04:28:44;;;;;;;;;77.00;60.25;10.40;52.90;;;;;;4936472;29;8893;-56
2022/04/06 04:31:10;;;;;;;;;73.00;57.25;10.20;53.70;;;;;;4947817;28;8914;-59
2022/04/06 04:33:36;;;;;;;;;73.00;58.25;10.20;53.40;;;;;;4944066;29;8794;-59
2022/04/06 04:36:02;;;;;;;;;70.25;57.25;10.30;53.00;;;;;;4936450;29;8778;-57
2022/04/06 04:38:28;;;;;;;;;74.00;59.00;10.30;53.20;;;;;;4937977;29;8844;-56
2022/04/06 04:40:54;;;;;;;;;73.50;59.25;10.40;53.20;;;;;;4936358;29;8798;-58
2022/04/06 04:43:20;;;;;;;;;78.50;60.50;10.50;53.10;;;;;;4940759;29;9050;-58
2022/04/06 04:45:46;;;;;;;;;75.50;59.00;10.50;52.80;;;;;;4940249;28;8933;-72
2022/04/06 04:48:12;;;;;;;;;73.25;59.25;10.60;52.90;;;;;;4950896;29;8915;-57
2022/04/06 04:50:38;;;;;;;;;85.00;72.75;10.80;52.50;;;;;;4955365;28;8851;-57
2022/04/06 04:53:05;;;;;;;;;87.75;72.00;9.90;55.60;;;;;;4955477;29;8850;-61
2022/04/06 04:55:34;;;;;;;;;84.00;64.25;9.40;58.90;;;;;;4948761;28;8814;-59
2022/04/06 04:58:00;;;;;;;;;84.00;71.50;9.20;61.00;;;;;;4951800;28;8824;-60
2022/04/06 05:00:26;;;;;;;;;87.50;74.75;9.40;60.10;;;;;;4954179;28;8788;-59
2022/04/06 05:02:52;;;;;;;;;87.00;70.75;10.10;58.10;;;;;;4955459;28;9442;-57
2022/04/06 05:05:18;;;;;;;;;91.75;81.25;9.90;58.40;;;;;;4958026;28;8788;-59
2022/04/06 05:07:44;;;;;;;;;89.25;83.00;9.50;59.70;;;;;;4955922;28;8815;-58
2022/04/06 05:10:10;;;;;;;;;96.50;85.75;9.60;60.00;;;;;;4956943;28;8804;-59
2022/04/06 05:12:36;;;;;;;;;102.00;90.50;9.70;61.20;;;;;;4959236;28;9446;-59
2022/04/06 05:15:04;;;;;;;;;87.00;77.00;9.90;59.40;;;;;;4959797;28;8772;-59
2022/04/06 05:17:30;;;;;;;;;92.50;80.00;10.20;56.90;;;;;;4959357;28;9450;-61
2022/04/06 05:19:57;;;;;;;;;94.75;83.25;10.10;56.20;;;;;;4959436;28;8787;-60
2022/04/06 05:22:23;;;;;;;;;99.75;95.50;9.50;57.40;;;;;;4959685;28;8851;-62
2022/04/06 05:24:49;;;;;;;;;91.75;78.75;9.70;56.30;;;;;;4959688;28;9639;-62
2022/04/06 05:27:15;;;;;;;;;94.25;84.75;9.80;56.20;;;;;;4959558;28;8848;-61
2022/04/06 05:29:42;;;;;;;;;97.00;93.00;10.00;55.30;;;;;;4959473;28;8799;-61
2022/04/06 05:32:08;;;;;;;;;97.75;88.50;10.70;53.70;;;;;;4959462;28;8788;-61
2022/04/06 05:34:35;;;;;;;;;95.50;89.50;11.10;52.20;;;;;;4959155;28;9474;-60
2022/04/06 05:37:03;;;;;;;;;90.50;79.75;11.20;51.80;;;;;;4951613;29;9212;-60
2022/04/06 05:39:28;;;;;;;;;92.00;82.25;11.20;52.30;;;;;;4938242;29;8807;-61
2022/04/06 05:41:54;;;;;;;;;95.00;87.25;11.30;52.70;;;;;;4938958;29;8767;-62
2022/04/06 05:44:21;;;;;;;;;91.00;78.75;11.10;53.30;;;;;;4939994;29;8807;-61
2022/04/06 05:46:47;;;;;;;;;89.00;80.00;11.00;54.60;;;;;;4940066;29;9495;-60
2022/04/06 05:49:12;;;;;;;;;87.00;77.75;11.40;52.40;;;;;;4939238;29;8767;-62
2022/04/06 05:51:38;;;;;;;;;93.50;86.50;11.20;53.20;;;;;;4939558;29;8846;-61
2022/04/06 05:54:04;;;;;;;;;92.00;84.00;11.50;52.30;;;;;;4939987;29;8797;-61
2022/04/06 05:56:31;;;;;;;;;92.75;87.00;11.90;51.30;;;;;;4939810;29;8838;-61
2022/04/06 05:58:58;;;;;;;;;96.50;92.25;11.80;51.10;;;;;;4939540;29;8819;-62
2022/04/06 06:01:24;;;;;;;;;89.00;78.75;11.50;52.40;;;;;;4939549;29;8809;-59
2022/04/06 06:03:50;;;;;;;;;86.25;76.25;11.60;52.10;;;;;;4939583;29;8799;-62
2022/04/06 06:06:16;;;;;;;;;84.75;74.25;11.80;51.50;;;;;;4937876;29;8783;-61
2022/04/06 06:08:42;;;;;;;;;87.75;79.00;12.20;50.30;;;;;;4939592;29;8871;-63
2022/04/06 06:11:08;;;;;;;;;83.75;65.00;12.50;49.70;;;;;;4939349;29;9455;-62
2022/04/06 06:13:34;;;;;;;;;79.50;63.25;12.60;48.90;;;;;;4939504;29;8789;-62
2022/04/06 06:16:00;;;;;;;;;80.00;67.00;12.70;48.20;;;;;;4939097;29;8921;-60
2022/04/06 06:18:27;;;;;;;;;79.00;67.50;12.80;47.90;;;;;;4939238;29;8837;-60
2022/04/06 06:20:53;;;;;;;;;83.50;67.00;12.90;47.90;;;;;;4938671;29;8890;-62
2022/04/06 06:23:19;;;;;;;;;81.50;68.75;13.20;47.60;;;;;;4939121;29;8787;-61
2022/04/06 06:25:45;;;;;;;;;89.50;76.75;13.30;47.20;;;;;;4939051;29;8862;-60
2022/04/06 06:28:11;;;;;;;;;84.00;72.50;13.20;46.70;;;;;;4939063;29;8889;-61
2022/04/06 06:30:37;;;;;;;;;75.25;61.00;12.90;48.20;;;;;;4939065;29;8783;-62
2022/04/06 06:33:02;;;;;;;;;69.75;55.50;13.10;47.70;;;;;;4939336;29;8805;-62
2022/04/06 06:35:28;;;;;;;;;68.50;55.25;13.10;47.70;;;;;;4938462;29;8797;-62
2022/04/06 06:37:56;;;;;;;;;65.25;54.00;13.40;47.20;;;;;;4938833;29;8799;-62
2022/04/06 06:40:24;;;;;;;;;69.75;56.00;13.70;46.50;;;;;;4938928;29;8759;-62
2022/04/06 06:42:50;;;;;;;;;63.75;52.75;14.00;46.10;;;;;;4938882;29;8817;-63
2022/04/06 06:45:15;;;;;;;;;67.00;54.25;14.20;46.00;;;;;;4938792;29;8909;-61
2022/04/06 06:47:42;;;;;;;;;71.00;54.75;14.40;45.40;;;;;;4939004;29;9463;-60
2022/04/06 06:50:10;;;;;;;;;72.00;58.25;14.50;44.90;;;;;;4938029;29;8819;-60
2022/04/06 06:52:36;;;;;;;;;69.75;55.75;14.50;45.20;;;;;;4938891;29;9513;-61
2022/04/06 06:55:04;;;;;;;;;70.75;55.25;14.60;44.70;;;;;;4938555;29;8816;-60
2022/04/06 06:57:30;;;;;;;;;67.50;55.25;14.60;44.70;;;;;;4938846;29;8990;-59
2022/04/06 06:59:56;;;;;;;;;66.75;54.50;14.80;44.20;;;;;;4938550;29;8778;-58
2022/04/06 07:02:21;;;;;;;;;59.25;49.00;14.90;43.50;;;;;;4938423;29;8822;-59
2022/04/06 07:04:47;;;;;;;;;59.25;49.25;14.40;44.30;;;;;;4938466;29;8805;-59
2022/04/06 07:07:13;;;;;;;;;56.00;46.00;14.70;43.80;;;;;;4938294;29;8799;-59
2022/04/06 07:09:39;;;;;;;;;53.25;42.75;15.00;42.90;;;;;;4938328;29;8791;-58
2022/04/06 07:12:05;;;;;;;;;53.00;44.00;15.00;43.30;;;;;;4938302;29;8795;-60
2022/04/06 07:14:32;;;;;;;;;52.50;44.50;15.30;42.80;;;;;;4938321;29;8806;-59
2022/04/06 07:17:01;;;;;;;;;51.25;44.00;15.40;41.70;;;;;;4937916;29;8798;-59
2022/04/06 07:19:27;;;;;;;;;53.00;44.00;15.60;41.10;;;;;;4938438;29;8790;-59
2022/04/06 07:21:53;;;;;;;;;55.25;45.00;15.70;40.60;;;;;;4938087;29;8802;-58
2022/04/06 07:24:18;;;;;;;;;56.25;45.00;15.90;40.40;;;;;;4938061;29;8809;-58
2022/04/06 07:26:44;;;;;;;;;58.00;46.75;15.90;40.30;;;;;;4938111;29;8814;-59
2022/04/06 07:29:15;;;;;;;;;56.75;47.50;15.50;41.00;;;;;;4937934;29;8803;-59
2022/04/06 07:31:44;;;;;;;;;56.50;46.25;15.60;40.60;;;;;;4937960;29;8794;-58
2022/04/06 07:34:10;;;;;;;;;49.75;42.00;15.70;40.40;;;;;;4938149;29;8806;-59
2022/04/06 07:36:37;;;;;;;;;55.00;45.50;15.90;40.50;;;;;;4938076;29;8818;-59
2022/04/06 07:39:06;;;;;;;;;57.75;46.75;16.00;40.10;;;;;;4937767;29;8810;-58
2022/04/06 07:41:33;;;;;;;;;56.25;47.00;16.00;39.70;;;;;;4937648;29;8897;-59
2022/04/06 07:43:59;;;;;;;;;53.50;44.75;16.20;39.60;;;;;;4937987;29;8817;-60
2022/04/06 07:46:24;;;;;;;;;58.00;48.75;16.30;39.30;;;;;;4937617;29;9418;-60
2022/04/06 07:48:50;;;;;;;;;63.00;50.00;16.30;39.40;;;;;;4937455;29;8807;-60
2022/04/06 07:51:16;;;;;;;;;57.50;47.25;16.40;39.90;;;;;;4937321;29;8823;-60
2022/04/06 07:53:43;;;;;;;;;61.50;50.75;16.10;40.40;;;;;;4937410;29;8794;-59
2022/04/06 07:56:08;;;;;;;;;58.50;48.00;16.20;40.20;;;;;;4937381;29;8874;-60
2022/04/06 07:58:35;;;;;;;;;55.25;45.75;16.30;40.10;;;;;;4936318;29;8851;-59
2022/04/06 08:01:02;;;;;;;;;51.00;44.00;16.40;39.90;;;;;;4937420;29;8787;-60
2022/04/06 08:03:29;;;;;;;;;49.50;42.00;16.60;39.50;;;;;;4936397;29;8806;-59
2022/04/06 08:05:56;;;;;;;;;50.00;42.75;16.80;39.50;;;;;;4937399;29;8877;-60
2022/04/06 08:08:22;;;;;;;;;46.50;36.75;16.90;39.10;;;;;;4937357;29;9465;-60
2022/04/06 08:10:48;;;;;;;;;44.25;38.00;16.80;39.10;;;;;;4937172;29;8915;-60
2022/04/06 08:13:14;;;;;;;;;46.00;39.25;16.80;39.50;;;;;;4937271;29;9437;-59
2022/04/06 08:15:40;;;;;;;;;46.00;36.75;16.80;39.70;;;;;;4937226;29;8937;-60
2022/04/06 08:18:06;;;;;;;;;48.50;42.00;16.90;39.40;;;;;;4937175;29;8811;-59
2022/04/06 08:20:32;;;;;;;;;51.50;42.50;17.10;40.10;;;;;;4937190;29;8767;-60
2022/04/06 08:22:59;;;;;;;;;53.50;45.00;17.00;40.10;;;;;;4937057;29;8913;-60
2022/04/06 08:25:28;;;;;;;;;51.50;44.00;17.30;39.40;;;;;;4937031;29;8875;-60
2022/04/06 08:28:44;;;;;;;;;56.50;46.00;17.60;39.10;;;;;;4936926;29;8834;-60
2022/04/06 08:31:11;;;;;;;;;54.50;45.00;17.70;38.70;;;;;;4936982;29;8795;-60
2022/04/06 08:33:38;;;;;;;;;50.00;42.00;17.50;39.40;;;;;;4937245;29;8914;-59
2022/04/06 08:36:06;;;;;;;;;50.25;42.00;17.60;38.60;;;;;;4937153;29;9548;-60
2022/04/06 08:38:37;;;;;;;;;53.75;43.75;17.70;38.50;;;;;;4936854;29;8831;-59
2022/04/06 08:41:03;;;;;;;;;54.50;43.25;17.70;39.10;;;;;;4936904;29;8795;-61
2022/04/06 08:43:36;;;;;;;;;52.25;43.75;17.90;38.90;;;;;;4936989;29;8799;-60
2022/04/06 08:46:02;;;;;;;;;53.75;45.50;18.00;38.70;;;;;;4936921;29;8767;-59
2022/04/06 08:48:31;;;;;;;;;51.00;41.50;17.80;38.60;;;;;;4936852;29;8787;-60
2022/04/06 08:51:00;;;;;;;;;56.50;47.25;17.80;38.60;;;;;;4936883;29;9516;-60
2022/04/06 08:53:26;;;;;;;;;58.00;46.00;17.80;38.60;;;;;;4937013;29;8922;-59
2022/04/06 08:55:52;;;;;;;;;123.00;116.00;18.20;38.00;;;;;;4936695;29;8775;-60
2022/04/06 08:58:18;;;;;;;;;64.50;51.50;18.00;39.60;;;;;;4936684;29;8826;-61
2022/04/06 09:00:44;;;;;;;;;75.25;59.25;18.00;38.60;;;;;;4936570;29;8795;-60
2022/04/06 09:03:11;;;;;;;;;74.75;63.75;18.30;38.50;;;;;;4937032;29;8803;-60
2022/04/06 09:05:37;;;;;;;;;72.00;60.00;18.50;39.10;;;;;;4936661;29;8794;-61
2022/04/06 09:08:04;;;;;;;;;38.75;34.50;18.60;39.00;;;;;;4936470;29;8794;-60
2022/04/06 09:10:40;;;;;;;;;36.67;33.67;18.70;39.40;;;;;;4936551;29;8787;-61
2022/04/06 09:13:13;;;;;;;;;31.33;30.33;18.60;37.10;;;;;;4936643;29;8810;-60
2022/04/06 09:15:39;;;;;;;;;33.00;30.67;18.80;36.30;;;;;;4936452;29;8787;-60
2022/04/06 09:18:05;;;;;;;;;29.00;23.00;19.00;37.30;;;;;;4935397;29;8857;-59
2022/04/06 09:20:31;;;;;;;;;22.00;21.00;19.10;36.10;;;;;;4936475;29;8767;-61
2022/04/06 09:23:06;;;;;;;;;23.67;21.00;19.00;34.90;;;;;;4936712;29;8783;-60
2022/04/06 09:25:37;;;;;;;;;39.33;35.33;19.10;33.50;;;;;;4936600;29;8755;-60
2022/04/06 09:28:16;;;;;;;;;37.00;34.25;19.20;34.60;;;;;;4936807;29;8815;-60
2022/04/06 09:30:44;;;;;;;;;28.00;27.00;19.40;35.40;;;;;;4936732;29;8952;-60
2022/04/06 09:33:21;;;;;;;;;23.33;21.33;19.50;34.20;;;;;;4936474;29;8787;-60
2022/04/06 09:35:48;;;;;;;;;46.25;39.75;19.60;35.00;;;;;;4936488;29;8925;-61
2022/04/06 09:38:22;;;;;;;;;20.67;20.00;19.70;33.00;;;;;;4936381;29;8873;-60
2022/04/06 09:41:14;;;;;;;;;22.00;20.67;19.60;31.70;;;;;;4938088;29;8870;-60
2022/04/06 09:43:40;;;;;;;;;22.33;21.00;19.80;33.30;;;;;;4940072;29;8877;-60
2022/04/06 09:49:16;;;;;;;;;23.33;22.00;20.10;29.70;;;;;;4939781;29;9405;-60
2022/04/06 09:51:46;;;;;;;;;24.00;24.00;20.30;30.40;;;;;;4938630;29;8839;-60
2022/04/06 09:54:13;;;;;;;;;34.00;30.33;20.40;30.30;;;;;;4939777;29;8961;-61
2022/04/06 09:56:40;;;;;;;;;17.33;17.33;20.50;31.20;;;;;;4939693;29;8823;-59
2022/04/06 09:59:07;;;;;;;;;20.33;18.33;20.60;30.90;;;;;;4939739;29;8814;-60
2022/04/06 10:01:39;;;;;;;;;28.00;26.33;20.90;28.80;;;;;;4939670;29;8802;-60
2022/04/06 10:04:07;;;;;;;;;26.00;23.33;20.90;28.90;;;;;;4939600;29;8811;-59
2022/04/06 10:06:38;;;;;;;;;17.00;14.67;21.00;29.60;;;;;;4939479;29;8809;-60
2022/04/06 10:09:06;;;;;;;;;14.67;13.00;21.30;28.60;;;;;;4939489;29;8874;-60
2022/04/06 10:11:39;;;;;;;;;17.67;16.67;21.50;29.10;;;;;;4939352;29;8786;-60
2022/04/06 10:14:08;;;;;;;;;16.33;16.33;21.90;27.80;;;;;;4939457;29;9540;-60
2022/04/06 10:16:36;;;;;;;;;18.67;18.67;21.90;28.10;;;;;;4938952;29;8799;-59
2022/04/06 10:19:03;;;;;;;;;17.33;17.00;21.90;28.30;;;;;;4938984;29;8838;-61
2022/04/06 10:21:53;;;;;;;;;14.33;14.33;21.90;28.30;;;;;;4939162;29;8759;-60
2022/04/06 10:24:31;;;;;;;;;12.00;12.00;21.90;27.50;;;;;;4939179;29;8779;-61
2022/04/06 10:27:17;;;;;;;;;13.67;13.67;22.10;26.30;;;;;;4939257;29;8823;-60
2022/04/06 10:30:13;;;;;;;;;12.00;12.00;22.30;28.10;;;;;;4938988;29;8787;-61
2022/04/06 10:32:41;;;;;;;;;15.67;14.00;22.20;27.00;;;;;;4939037;29;8809;-60
2022/04/06 10:35:33;;;;;;;;;14.33;14.00;22.30;27.20;;;;;;4938977;29;8795;-60
2022/04/06 10:37:59;;;;;;;;;12.00;12.00;22.60;27.70;;;;;;4938948;29;8830;-66
2022/04/06 10:40:26;;;;;;;;;10.33;10.33;22.80;27.10;;;;;;4939029;29;8825;-63
2022/04/06 10:42:52;;;;;;;;;15.00;14.00;22.80;26.70;;;;;;4938772;29;8893;-62
2022/04/06 10:45:29;;;;;;;;;10.33;9.67;23.00;27.40;;;;;;4938803;29;8821;-61
2022/04/06 10:48:18;;;;;;;;;11.00;10.33;23.40;27.40;;;;;;4938560;29;11617;-63
2022/04/06 10:50:46;;;;;;;;;11.00;11.00;23.30;26.50;;;;;;4938414;29;11589;-62
2022/04/06 10:53:21;;;;;;;;;9.00;9.00;23.30;27.10;;;;;;4938288;29;11720;-62
2022/04/06 10:55:57;;;;;;;;;9.33;7.67;23.50;26.00;;;;;;4938316;29;11580;-61
2022/04/06 10:58:25;;;;;;;;;11.00;11.00;23.90;27.10;;;;;;4938724;29;8830;-61
2022/04/06 11:01:13;;;;;;;;;10.00;10.00;23.90;27.10;;;;;;4938339;29;11657;-61
2022/04/06 11:03:41;;;;;;;;;10.67;10.67;24.00;26.70;;;;;;4938366;29;11560;-62
2022/04/06 11:06:06;;;;;;;;;9.00;9.00;23.70;26.00;;;;;;4938506;29;11557;-61
2022/04/06 11:11:47;;;;;;;;;11.67;10.00;24.20;26.30;;;;;;4938351;29;8755;-61
2022/04/06 11:14:25;;;;;;;;;10.25;8.00;24.30;24.80;;;;;;4938200;29;11675;-62
2022/04/06 11:16:52;;;;;;;;;12.67;11.33;24.20;26.00;;;;;;4938082;29;11525;-63
2022/04/06 11:19:18;;;;;;;;;14.33;13.33;24.10;25.40;;;;;;4938200;29;12279;-62
2022/04/06 11:21:50;;;;;;;;;12.00;11.33;24.30;25.50;;;;;;4937975;29;11554;-62
2022/04/06 11:24:18;;;;;;;;;10.75;9.50;24.30;24.80;;;;;;4938134;29;11550;-62
2022/04/06 11:26:44;;;;;;;;;9.25;9.25;24.40;25.00;;;;;;4937935;29;11541;-62
2022/04/06 11:29:09;;;;;;;;;9.25;9.25;24.20;25.80;;;;;;4937800;29;11585;-61
2022/04/06 11:31:52;;;;;;;;;10.75;10.75;24.30;24.90;;;;;;4937906;29;8786;-62
2022/04/06 11:34:35;;;;;;;;;16.67;16.00;24.30;25.40;;;;;;4938060;29;8803;-62
2022/04/06 11:37:03;;;;;;;;;12.00;12.00;24.60;26.40;;;;;;4937723;29;11589;-63
2022/04/06 11:39:30;;;;;;;;;11.67;11.67;24.80;24.70;;;;;;4937946;29;12245;-62
2022/04/06 11:42:03;;;;;;;;;11.25;11.25;25.10;25.30;;;;;;4937878;29;11638;-62
2022/04/06 11:44:30;;;;;;;;;11.00;11.00;25.00;26.00;;;;;;4937596;29;11576;-62
2022/04/06 11:46:57;;;;;;;;;11.00;11.00;25.00;25.00;;;;;;4937489;29;11629;-62
2022/04/06 11:49:24;;;;;;;;;8.50;8.50;25.20;24.90;;;;;;4937516;29;12226;-62
2022/04/06 11:51:54;;;;;;;;;8.50;8.25;25.60;24.10;;;;;;4937333;29;12254;-62
2022/04/06 11:54:22;;;;;;;;;8.50;7.75;25.30;24.20;;;;;;4937436;29;11525;-63
2022/04/06 11:56:52;;;;;;;;;6.00;6.00;25.20;23.80;;;;;;4937495;29;11668;-61
2022/04/06 11:59:23;;;;;;;;;7.50;6.50;25.40;23.30;;;;;;4937386;29;11541;-62
2022/04/06 12:01:50;;;;;;;;;5.00;5.00;25.40;23.20;;;;;;4937365;29;11541;-63
2022/04/06 12:04:22;;;;;;;;;5.50;4.00;25.60;24.10;;;;;;4936571;29;11525;-62
2022/04/06 12:06:50;;;;;;;;;7.50;7.25;25.90;23.20;;;;;;4937338;29;11537;-62
2022/04/06 12:09:16;;;;;;;;;3.75;3.75;26.20;24.70;;;;;;4937222;29;11518;-63
2022/04/06 12:11:42;;;;;;;;;4.00;4.00;26.20;23.30;;;;;;4937230;29;11526;-62
2022/04/06 12:14:11;;;;;;;;;5.75;5.75;26.20;23.20;;;;;;4937045;29;11524;-62
2022/04/06 12:16:41;;;;;;;;;4.00;4.00;26.20;23.70;;;;;;4937133;29;11526;-62
2022/04/06 12:19:15;;;;;;;;;4.00;4.00;26.40;23.20;;;;;;4937365;29;11637;-62
2022/04/06 12:21:43;;;;;;;;;4.50;4.50;28.10;22.30;;;;;;4937111;29;11572;-63
2022/04/06 12:24:11;;;;;;;;;3.75;3.75;32.60;20.20;;;;;;4937043;29;11535;-63
2022/04/06 12:26:54;;;;;;;;;3.75;3.75;35.70;18.60;;;;;;4937159;29;11539;-63
2022/04/06 12:29:20;;;;;;;;;3.50;3.50;38.30;17.80;;;;;;4936955;29;12231;-62
2022/04/06 12:31:47;;;;;;;;;3.50;3.50;39.20;16.80;;;;;;4936926;29;11544;-62
2022/04/06 12:34:28;;;;;;;;;2.25;2.25;39.00;17.20;;;;;;4936927;29;11705;-63
2022/04/06 12:36:54;;;;;;;;;1.75;1.75;39.90;16.20;;;;;;4936893;29;11539;-63
2022/04/06 12:39:21;;;;;;;;;4.00;4.00;38.20;16.40;;;;;;4936995;29;12217;-63
2022/04/06 12:41:59;;;;;;;;;3.75;3.75;38.00;16.90;;;;;;4937168;29;11506;-63
2022/04/06 12:44:30;;;;;;;;;3.25;3.25;40.50;16.20;;;;;;4937060;29;11544;-63
2022/04/06 12:46:57;;;;;;;;;6.00;6.00;41.00;15.50;;;;;;4936797;29;11657;-63
2022/04/06 12:49:26;;;;;;;;;4.25;4.25;40.70;15.40;;;;;;4936817;29;11512;-62
2022/04/06 12:52:10;;;;;;;;;3.75;3.75;39.70;15.50;;;;;;4936705;29;11571;-63
2022/04/06 12:54:37;;;;;;;;;5.25;5.25;39.30;16.20;;;;;;4936722;29;12355;-64